Air Navigation Services of Czech Republic
Airport: LKPR Updated:  25.05.2018 02:30:07  UTC
 METAR LKPR 25.05. 02:30 ...
METAR LKPR 250230Z 02003KT CAVOK 15/12 Q1019 NOSIG RMK REG QNH 1016=
 TAF LKPR 24.05. 23:00 ...
TAF LKPR 242300Z 2500/2606 VRB02KT 9999 SCT040      TEMPO 2500/2502 -SHRA SCT030TCU      TEMPO 2502/2506 5000 BR SCT010      BECMG 2506/2508 06011KT      PROB30 TEMPO 2511/2519 8000 SHRA SCT025TCU      BECMG 2519/2521 VRB02KT=